sensor_id;sensor_type;location;lat;lon;timestamp;pressure;altitude;pressure_sealevel;temperature;humidity
40918;BME280;26644;50.248;19.032;2022-12-29T00:00:00;98136.63;;;3.60;59.39
40918;BME280;26644;50.248;19.032;2022-12-29T00:01:14;98124.34;;;3.57;59.22
40918;BME280;26644;50.248;19.032;2022-12-29T00:02:16;98124.34;;;3.57;59.10
40918;BME280;26644;50.248;19.032;2022-12-29T00:03:19;98118.09;;;3.57;59.19
40918;BME280;26644;50.248;19.032;2022-12-29T00:04:22;98122.09;;;3.54;59.28
40918;BME280;26644;50.248;19.032;2022-12-29T00:05:24;98122.94;;;3.55;59.40
40918;BME280;26644;50.248;19.032;2022-12-29T00:06:28;98121.28;;;3.54;59.42
40918;BME280;26644;50.248;19.032;2022-12-29T00:07:31;98116.09;;;3.52;59.52
40918;BME280;26644;50.248;19.032;2022-12-29T00:08:33;98123.41;;;3.52;59.37
40918;BME280;26644;50.248;19.032;2022-12-29T00:09:41;98115.03;;;3.53;59.44
40918;BME280;26644;50.248;19.032;2022-12-29T00:10:44;98110.69;;;3.52;58.98
40918;BME280;26644;50.248;19.032;2022-12-29T00:11:48;98116.91;;;3.53;59.47
40918;BME280;26644;50.248;19.032;2022-12-29T00:12:52;98115.25;;;3.52;59.41
40918;BME280;26644;50.248;19.032;2022-12-29T00:14:12;98119.28;;;3.49;59.41
40918;BME280;26644;50.248;19.032;2022-12-29T00:15:32;98111.38;;;3.48;59.79
40918;BME280;26644;50.248;19.032;2022-12-29T00:16:41;98100.91;;;3.39;59.47
40918;BME280;26644;50.248;19.032;2022-12-29T00:17:47;98128.03;;;3.51;59.65
40918;BME280;26644;50.248;19.032;2022-12-29T00:18:48;98112.31;;;3.53;59.49
40918;BME280;26644;50.248;19.032;2022-12-29T00:19:51;98123.41;;;3.52;59.69
40918;BME280;26644;50.248;19.032;2022-12-29T00:21:14;98115.03;;;3.53;59.38
40918;BME280;26644;50.248;19.032;2022-12-29T00:22:35;98103.59;;;3.51;59.61
40918;BME280;26644;50.248;19.032;2022-12-29T00:23:56;98110.69;;;3.52;59.42
40918;BME280;26644;50.248;19.032;2022-12-29T00:25:16;98114.44;;;3.51;59.67
40918;BME280;26644;50.248;19.032;2022-12-29T00:26:36;98108.78;;;3.53;59.70
40918;BME280;26644;50.248;19.032;2022-12-29T00:27:58;98114.69;;;3.50;60.07
40918;BME280;26644;50.248;19.032;2022-12-29T00:29:19;98113.97;;;3.54;59.56
40918;BME280;26644;50.248;19.032;2022-12-29T00:30:39;98105.25;;;3.52;59.57
40918;BME280;26644;50.248;19.032;2022-12-29T00:31:59;98111.50;;;3.53;59.66
40918;BME280;26644;50.248;19.032;2022-12-29T00:33:21;98106.06;;;3.53;60.06
40918;BME280;26644;50.248;19.032;2022-12-29T00:34:45;98098.66;;;3.48;59.81
40918;BME280;26644;50.248;19.032;2022-12-29T00:36:10;98104.91;;;3.49;59.94
40918;BME280;26644;50.248;19.032;2022-12-29T00:37:17;98093.78;;;3.50;59.97
40918;BME280;26644;50.248;19.032;2022-12-29T00:38:46;98090.41;;;3.43;60.15
40918;BME280;26644;50.248;19.032;2022-12-29T00:40:12;98095.69;;;3.50;60.37
40918;BME280;26644;50.248;19.032;2022-12-29T00:41:32;98091.81;;;3.46;60.48
40918;BME280;26644;50.248;19.032;2022-12-29T00:42:52;98090.16;;;3.44;60.32
40918;BME280;26644;50.248;19.032;2022-12-29T00:44:14;98069.78;;;3.30;60.33
40918;BME280;26644;50.248;19.032;2022-12-29T00:45:19;98086.84;;;3.42;60.56
40918;BME280;26644;50.248;19.032;2022-12-29T00:46:22;98080.25;;;3.38;60.36
40918;BME280;26644;50.248;19.032;2022-12-29T00:47:25;98083.22;;;3.37;60.47
40918;BME280;26644;50.248;19.032;2022-12-29T00:48:27;98078.59;;;3.37;60.43
40918;BME280;26644;50.248;19.032;2022-12-29T00:49:47;98066.59;;;3.33;60.32
40918;BME280;26644;50.248;19.032;2022-12-29T00:50:55;98068.09;;;3.41;60.43
40918;BME280;26644;50.248;19.032;2022-12-29T00:52:00;98075.19;;;3.42;60.18
40918;BME280;26644;50.248;19.032;2022-12-29T00:53:04;98070.97;;;3.34;60.20
40918;BME280;26644;50.248;19.032;2022-12-29T00:54:06;98075.69;;;3.39;60.49
40918;BME280;26644;50.248;19.032;2022-12-29T00:55:09;98076.97;;;3.36;60.42
40918;BME280;26644;50.248;19.032;2022-12-29T00:56:13;98069.31;;;3.33;60.70
40918;BME280;26644;50.248;19.032;2022-12-29T00:57:15;98070.03;;;3.28;60.70
40918;BME280;26644;50.248;19.032;2022-12-29T00:58:19;98066.50;;;3.28;60.91
40918;BME280;26644;50.248;19.032;2022-12-29T00:59:24;98069.44;;;3.26;61.10
40918;BME280;26644;50.248;19.032;2022-12-29T01:00:27;98075.72;;;3.27;60.81
40918;BME280;26644;50.248;19.032;2022-12-29T01:01:31;98079.25;;;3.27;61.03
40918;BME280;26644;50.248;19.032;2022-12-29T01:02:34;98068.16;;;3.29;61.10
40918;BME280;26644;50.248;19.032;2022-12-29T01:03:37;98068.75;;;3.31;60.85
40918;BME280;26644;50.248;19.032;2022-12-29T01:04:40;98066.59;;;3.33;60.67
40918;BME280;26644;50.248;19.032;2022-12-29T01:05:43;98068.50;;;3.33;60.83
40918;BME280;26644;50.248;19.032;2022-12-29T01:06:48;98062.47;;;3.31;60.93
40918;BME280;26644;50.248;19.032;2022-12-29T01:07:52;98064.88;;;3.27;61.15
40918;BME280;26644;50.248;19.032;2022-12-29T01:08:53;98069.00;;;3.30;60.86
40918;BME280;26644;50.248;19.032;2022-12-29T01:10:10;98066.50;;;3.28;60.80
40918;BME280;26644;50.248;19.032;2022-12-29T01:11:13;98064.63;;;3.28;61.06
40918;BME280;26644;50.248;19.032;2022-12-29T01:12:15;98061.66;;;3.30;61.13
40918;BME280;26644;50.248;19.032;2022-12-29T01:13:38;98065.78;;;3.33;61.23
40918;BME280;26644;50.248;19.032;2022-12-29T01:14:43;98070.97;;;3.34;61.13
40918;BME280;26644;50.248;19.032;2022-12-29T01:15:49;98071.22;;;3.33;61.04
40918;BME280;26644;50.248;19.032;2022-12-29T01:16:52;98066.13;;;3.36;61.07
40918;BME280;26644;50.248;19.032;2022-12-29T01:17:56;98076.75;;;3.38;61.02
40918;BME280;26644;50.248;19.032;2022-12-29T01:18:58;98083.81;;;3.39;60.97
40918;BME280;26644;50.248;19.032;2022-12-29T01:20:03;98078.16;;;3.40;60.68
40918;BME280;26644;50.248;19.032;2022-12-29T01:21:07;98076.75;;;3.38;60.77
40918;BME280;26644;50.248;19.032;2022-12-29T01:22:09;98080.63;;;3.42;60.55
40918;BME280;26644;50.248;19.032;2022-12-29T01:23:12;98074.13;;;3.43;60.87
40918;BME280;26644;50.248;19.032;2022-12-29T01:24:15;98076.00;;;3.42;60.75
40918;BME280;26644;50.248;19.032;2022-12-29T01:25:19;98082.28;;;3.43;60.42
40918;BME280;26644;50.248;19.032;2022-12-29T01:26:21;98074.84;;;3.38;60.75
40918;BME280;26644;50.248;19.032;2022-12-29T01:27:26;98071.88;;;3.40;60.62
40918;BME280;26644;50.248;19.032;2022-12-29T01:28:29;98069.41;;;3.38;60.54
40918;BME280;26644;50.248;19.032;2022-12-29T01:29:33;98064.09;;;3.43;60.74
40918;BME280;26644;50.248;19.032;2022-12-29T01:30:38;98062.44;;;3.42;60.25
40918;BME280;26644;50.248;19.032;2022-12-29T01:31:40;98072.47;;;3.42;60.46
40918;BME280;26644;50.248;19.032;2022-12-29T01:32:43;98074.94;;;3.43;60.13
40918;BME280;26644;50.248;19.032;2022-12-29T01:33:46;98074.44;;;3.47;60.21
40918;BME280;26644;50.248;19.032;2022-12-29T01:34:49;98075.53;;;3.46;60.49
40918;BME280;26644;50.248;19.032;2022-12-29T01:35:50;98073.63;;;3.46;60.56
40918;BME280;26644;50.248;19.032;2022-12-29T01:36:53;98065.50;;;3.46;60.28
40918;BME280;26644;50.248;19.032;2022-12-29T01:37:55;98076.44;;;3.51;60.45
40918;BME280;26644;50.248;19.032;2022-12-29T01:38:59;98078.09;;;3.52;60.30
40918;BME280;26644;50.248;19.032;2022-12-29T01:40:01;98079.16;;;3.51;59.93
40918;BME280;26644;50.248;19.032;2022-12-29T01:41:07;98080.56;;;3.54;60.35
40918;BME280;26644;50.248;19.032;2022-12-29T01:42:17;98086.00;;;3.54;60.16
40918;BME280;26644;50.248;19.032;2022-12-29T01:43:21;98090.38;;;3.55;60.29
40918;BME280;26644;50.248;19.032;2022-12-29T01:44:52;98085.25;;;3.58;60.32
40918;BME280;26644;50.248;19.032;2022-12-29T01:45:58;98092.59;;;3.58;60.33
40918;BME280;26644;50.248;19.032;2022-12-29T01:47:00;98087.25;;;3.63;59.96
40918;BME280;26644;50.248;19.032;2022-12-29T01:48:08;98099.78;;;3.64;59.96
40918;BME280;26644;50.248;19.032;2022-12-29T01:49:19;98101.09;;;3.61;60.05
40918;BME280;26644;50.248;19.032;2022-12-29T01:50:30;98092.84;;;3.56;60.17
40918;BME280;26644;50.248;19.032;2022-12-29T01:51:38;98098.38;;;3.61;59.98
40918;BME280;26644;50.248;19.032;2022-12-29T01:52:54;98098.03;;;3.58;59.98
40918;BME280;26644;50.248;19.032;2022-12-29T01:54:05;98105.09;;;3.59;60.50
40918;BME280;26644;50.248;19.032;2022-12-29T01:55:13;98098.38;;;3.61;60.24
40918;BME280;26644;50.248;19.032;2022-12-29T01:56:21;98098.69;;;3.65;60.32
40918;BME280;26644;50.248;19.032;2022-12-29T01:57:31;98094.34;;;3.64;60.39
40918;BME280;26644;50.248;19.032;2022-12-29T01:58:41;98094.91;;;3.66;60.27
40918;BME280;26644;50.248;19.032;2022-12-29T01:59:53;98090.31;;;3.67;60.42
40918;BME280;26644;50.248;19.032;2022-12-29T02:01:00;98077.81;;;3.66;60.20
40918;BME280;26644;50.248;19.032;2022-12-29T02:02:05;98087.59;;;3.67;60.31
40918;BME280;26644;50.248;19.032;2022-12-29T02:03:11;98079.47;;;3.67;60.39
40918;BME280;26644;50.248;19.032;2022-12-29T02:04:13;98073.69;;;3.63;60.47
40918;BME280;26644;50.248;19.032;2022-12-29T02:05:24;98079.47;;;3.67;60.16
40918;BME280;26644;50.248;19.032;2022-12-29T02:06:36;98073.19;;;3.66;60.30
40918;BME280;26644;50.248;19.032;2022-12-29T02:07:47;98067.75;;;3.66;60.53
40918;BME280;26644;50.248;19.032;2022-12-29T02:08:55;98069.06;;;3.64;60.53
40918;BME280;26644;50.248;19.032;2022-12-29T02:10:02;98065.28;;;3.65;60.80
40918;BME280;26644;50.248;19.032;2022-12-29T02:11:05;98061.97;;;3.63;60.57
40918;BME280;26644;50.248;19.032;2022-12-29T02:12:10;98061.97;;;3.63;60.59
40918;BME280;26644;50.248;19.032;2022-12-29T02:13:15;98054.69;;;3.63;60.42
40918;BME280;26644;50.248;19.032;2022-12-29T02:14:19;98057.66;;;3.61;60.48
40918;BME280;26644;50.248;19.032;2022-12-29T02:15:37;98055.75;;;3.62;60.59
40918;BME280;26644;50.248;19.032;2022-12-29T02:17:03;98054.69;;;3.63;60.46
40918;BME280;26644;50.248;19.032;2022-12-29T02:18:25;98047.34;;;3.64;60.66
40918;BME280;26644;50.248;19.032;2022-12-29T02:21:56;98057.75;;;3.67;60.27
40918;BME280;26644;50.248;19.032;2022-12-29T02:25:44;98056.19;;;3.71;60.28
40918;BME280;26644;50.248;19.032;2022-12-29T02:29:40;98059.72;;;3.71;60.25
40918;BME280;26644;50.248;19.032;2022-12-29T02:31:17;98048.03;;;3.71;60.25
40918;BME280;26644;50.248;19.032;2022-12-29T02:32:49;98043.41;;;3.71;60.11
40918;BME280;26644;50.248;19.032;2022-12-29T02:34:09;98040.97;;;3.70;60.11
40918;BME280;26644;50.248;19.032;2022-12-29T02:35:33;98053.47;;;3.71;60.65
40918;BME280;26644;50.248;19.032;2022-12-29T02:37:03;98052.88;;;3.69;60.55
40918;BME280;26644;50.248;19.032;2022-12-29T02:38:24;98048.28;;;3.69;60.62
40918;BME280;26644;50.248;19.032;2022-12-29T02:39:40;98053.38;;;3.66;60.70
40918;BME280;26644;50.248;19.032;2022-12-29T02:43:37;98052.22;;;3.61;60.78
40918;BME280;26644;50.248;19.032;2022-12-29T02:44:59;98035.94;;;3.61;60.90
40918;BME280;26644;50.248;19.032;2022-12-29T02:46:18;98047.25;;;3.58;60.84
40918;BME280;26644;50.248;19.032;2022-12-29T02:47:46;98053.53;;;3.59;61.06
40918;BME280;26644;50.248;19.032;2022-12-29T02:49:15;98046.69;;;3.56;60.59
40918;BME280;26644;50.248;19.032;2022-12-29T02:50:31;98050.56;;;3.60;60.80
40918;BME280;26644;50.248;19.032;2022-12-29T02:51:46;98036.19;;;3.60;60.84
40918;BME280;26644;50.248;19.032;2022-12-29T02:53:01;98047.84;;;3.60;60.40
40918;BME280;26644;50.248;19.032;2022-12-29T02:54:21;98028.25;;;3.58;60.75
40918;BME280;26644;50.248;19.032;2022-12-29T02:55:59;98036.25;;;3.65;60.62
40918;BME280;26644;50.248;19.032;2022-12-29T02:57:30;98025.97;;;3.67;60.37
40918;BME280;26644;50.248;19.032;2022-12-29T02:58:36;98030.59;;;3.67;60.31
40918;BME280;26644;50.248;19.032;2022-12-29T02:59:39;98022.91;;;3.64;60.77
40918;BME280;26644;50.248;19.032;2022-12-29T03:00:56;98025.47;;;3.70;60.61
40918;BME280;26644;50.248;19.032;2022-12-29T03:02:28;98025.00;;;3.73;60.69
40918;BME280;26644;50.248;19.032;2022-12-29T03:03:53;98015.78;;;3.74;60.21
40918;BME280;26644;50.248;19.032;2022-12-29T03:05:17;98029.13;;;3.76;60.12
40918;BME280;26644;50.248;19.032;2022-12-29T03:06:42;98024.66;;;3.70;60.41
40918;BME280;26644;50.248;19.032;2022-12-29T03:08:03;98042.22;;;3.79;60.39
40918;BME280;26644;50.248;19.032;2022-12-29T03:09:25;98043.84;;;3.80;59.90
40918;BME280;26644;50.248;19.032;2022-12-29T03:10:45;98046.06;;;3.83;60.10
40918;BME280;26644;50.248;19.032;2022-12-29T03:11:58;98037.94;;;3.83;60.07
40918;BME280;26644;50.248;19.032;2022-12-29T03:13:25;98036.28;;;3.82;60.24
40918;BME280;26644;50.248;19.032;2022-12-29T03:14:59;98030.03;;;3.82;60.38
40918;BME280;26644;50.248;19.032;2022-12-29T03:16:31;98033.81;;;3.81;60.30
40918;BME280;26644;50.248;19.032;2022-12-29T03:17:51;98036.19;;;3.77;60.47
40918;BME280;26644;50.248;19.032;2022-12-29T03:19:07;98027.94;;;3.72;60.48
40918;BME280;26644;50.248;19.032;2022-12-29T03:20:23;98034.78;;;3.74;60.28
40918;BME280;26644;50.248;19.032;2022-12-29T03:21:37;98027.03;;;3.66;60.58
40918;BME280;26644;50.248;19.032;2022-12-29T03:23:07;98024.41;;;3.71;60.84
40918;BME280;26644;50.248;19.032;2022-12-29T03:24:13;98027.38;;;3.70;60.87
40918;BME280;26644;50.248;19.032;2022-12-29T03:25:24;98022.75;;;3.70;60.84
40918;BME280;26644;50.248;19.032;2022-12-29T03:26:36;98023.00;;;3.69;61.03
40918;BME280;26644;50.248;19.032;2022-12-29T03:27:42;98022.19;;;3.68;60.93
40918;BME280;26644;50.248;19.032;2022-12-29T03:28:53;98025.72;;;3.69;61.23
40918;BME280;26644;50.248;19.032;2022-12-29T03:30:03;98026.56;;;3.69;61.08
40918;BME280;26644;50.248;19.032;2022-12-29T03:31:11;98033.06;;;3.68;61.23
40918;BME280;26644;50.248;19.032;2022-12-29T03:32:16;98031.41;;;3.67;61.32
40918;BME280;26644;50.248;19.032;2022-12-29T03:33:27;98027.53;;;3.63;61.29
40918;BME280;26644;50.248;19.032;2022-12-29T03:34:36;98034.38;;;3.66;61.34
40918;BME280;26644;50.248;19.032;2022-12-29T03:35:43;98024.56;;;3.65;61.32
40918;BME280;26644;50.248;19.032;2022-12-29T03:36:53;98029.09;;;3.59;61.30
40918;BME280;26644;50.248;19.032;2022-12-29T03:38:11;98013.63;;;3.59;61.51
40918;BME280;26644;50.248;19.032;2022-12-29T03:39:20;98016.44;;;3.65;61.60
40918;BME280;26644;50.248;19.032;2022-12-29T03:40:28;98016.44;;;3.65;61.68
40918;BME280;26644;50.248;19.032;2022-12-29T03:41:34;98011.25;;;3.63;61.55
40918;BME280;26644;50.248;19.032;2022-12-29T03:42:40;98021.50;;;3.61;61.88
40918;BME280;26644;50.248;19.032;2022-12-29T03:43:43;98028.84;;;3.60;61.62
40918;BME280;26644;50.248;19.032;2022-12-29T03:44:46;98027.19;;;3.59;61.56
40918;BME280;26644;50.248;19.032;2022-12-29T03:45:50;98023.91;;;3.57;61.67
40918;BME280;26644;50.248;19.032;2022-12-29T03:46:53;98026.63;;;3.57;61.98
40918;BME280;26644;50.248;19.032;2022-12-29T03:47:55;98014.38;;;3.55;62.02
40918;BME280;26644;50.248;19.032;2022-12-29T03:49:00;98015.44;;;3.54;62.25
40918;BME280;26644;50.248;19.032;2022-12-29T03:50:01;98019.69;;;3.50;62.48
40918;BME280;26644;50.248;19.032;2022-12-29T03:51:09;98020.75;;;3.49;62.47
40918;BME280;26644;50.248;19.032;2022-12-29T03:52:11;98022.06;;;3.46;62.51
40918;BME280;26644;50.248;19.032;2022-12-29T03:53:18;98018.75;;;3.44;62.57
40918;BME280;26644;50.248;19.032;2022-12-29T03:54:20;98007.34;;;3.42;62.69
40918;BME280;26644;50.248;19.032;2022-12-29T03:55:23;97995.47;;;3.31;63.03
40918;BME280;26644;50.248;19.032;2022-12-29T03:56:25;98002.31;;;3.34;62.89
40918;BME280;26644;50.248;19.032;2022-12-29T03:57:29;97991.22;;;3.35;63.13
40918;BME280;26644;50.248;19.032;2022-12-29T03:58:38;97988.50;;;3.35;62.86
40918;BME280;26644;50.248;19.032;2022-12-29T03:59:48;97992.75;;;3.31;62.71
40918;BME280;26644;50.248;19.032;2022-12-29T04:00:50;97994.72;;;3.36;63.11
40918;BME280;26644;50.248;19.032;2022-12-29T04:01:53;97980.59;;;3.34;62.79
40918;BME280;26644;50.248;19.032;2022-12-29T04:02:56;97983.78;;;3.31;63.06
40918;BME280;26644;50.248;19.032;2022-12-29T04:04:01;97984.88;;;3.30;63.36
40918;BME280;26644;50.248;19.032;2022-12-29T04:05:06;97979.44;;;3.30;63.12
40918;BME280;26644;50.248;19.032;2022-12-29T04:06:10;97976.13;;;3.27;63.19
40918;BME280;26644;50.248;19.032;2022-12-29T04:07:34;97981.81;;;3.26;63.15
40918;BME280;26644;50.248;19.032;2022-12-29T04:08:41;97978.50;;;3.24;63.53
40918;BME280;26644;50.248;19.032;2022-12-29T04:09:42;97976.88;;;3.23;63.13
40918;BME280;26644;50.248;19.032;2022-12-29T04:10:51;97974.38;;;3.21;63.57
40918;BME280;26644;50.248;19.032;2022-12-29T04:11:55;97963.31;;;3.23;63.52
40918;BME280;26644;50.248;19.032;2022-12-29T04:12:58;97963.53;;;3.21;63.55
40918;BME280;26644;50.248;19.032;2022-12-29T04:14:01;97960.72;;;3.16;63.65
40918;BME280;26644;50.248;19.032;2022-12-29T04:15:07;97947.41;;;3.15;63.92
40918;BME280;26644;50.248;19.032;2022-12-29T04:16:10;97955.53;;;3.15;63.60
40918;BME280;26644;50.248;19.032;2022-12-29T04:17:13;97946.59;;;3.14;63.48
40918;BME280;26644;50.248;19.032;2022-12-29T04:18:16;97943.88;;;3.14;63.35
40918;BME280;26644;50.248;19.032;2022-12-29T04:19:22;97939.16;;;3.09;63.71
40918;BME280;26644;50.248;19.032;2022-12-29T04:20:24;97944.13;;;3.13;63.53
40918;BME280;26644;50.248;19.032;2022-12-29T04:21:45;97948.50;;;3.14;63.66
40918;BME280;26644;50.248;19.032;2022-12-29T04:22:48;97956.38;;;3.15;63.29
40918;BME280;26644;50.248;19.032;2022-12-29T04:23:50;97958.25;;;3.15;63.31
40918;BME280;26644;50.248;19.032;2022-12-29T04:24:54;97962.63;;;3.16;63.58
40918;BME280;26644;50.248;19.032;2022-12-29T04:25:56;97967.56;;;3.19;63.61
40918;BME280;26644;50.248;19.032;2022-12-29T04:27:00;97960.97;;;3.15;63.49
40918;BME280;26644;50.248;19.032;2022-12-29T04:28:08;97959.91;;;3.16;63.42
40918;BME280;26644;50.248;19.032;2022-12-29T04:29:25;97962.38;;;3.17;63.24
40918;BME280;26644;50.248;19.032;2022-12-29T04:30:47;97965.94;;;3.18;63.52
40918;BME280;26644;50.248;19.032;2022-12-29T04:32:06;97961.56;;;3.17;63.52
40918;BME280;26644;50.248;19.032;2022-12-29T04:33:13;97960.41;;;3.13;63.50
40918;BME280;26644;50.248;19.032;2022-12-29T04:34:16;97961.81;;;3.15;63.57
40918;BME280;26644;50.248;19.032;2022-12-29T04:35:22;97962.63;;;3.16;63.39
40918;BME280;26644;50.248;19.032;2022-12-29T04:36:26;97955.28;;;3.16;63.16
40918;BME280;26644;50.248;19.032;2022-12-29T04:37:29;97964.03;;;3.18;63.40
40918;BME280;26644;50.248;19.032;2022-12-29T04:38:32;97961.56;;;3.17;63.43
40918;BME280;26644;50.248;19.032;2022-12-29T04:39:38;97956.38;;;3.15;63.14
40918;BME280;26644;50.248;19.032;2022-12-29T04:40:43;97957.78;;;3.18;63.37
40918;BME280;26644;50.248;19.032;2022-12-29T04:41:47;97956.69;;;3.19;63.19
40918;BME280;26644;50.248;19.032;2022-12-29T04:42:53;97940.25;;;3.08;63.13
40918;BME280;26644;50.248;19.032;2022-12-29T04:43:58;97945.84;;;3.19;63.35
40918;BME280;26644;50.248;19.032;2022-12-29T04:45:18;97939.38;;;3.20;63.31
40918;BME280;26644;50.248;19.032;2022-12-29T04:46:35;97942.06;;;3.20;62.93
40918;BME280;26644;50.248;19.032;2022-12-29T04:47:43;97945.84;;;3.19;62.98
40918;BME280;26644;50.248;19.032;2022-12-29T04:49:17;97947.75;;;3.18;62.97
40918;BME280;26644;50.248;19.032;2022-12-29T04:50:29;97945.63;;;3.20;63.32
40918;BME280;26644;50.248;19.032;2022-12-29T04:51:40;97951.06;;;3.20;63.04
40918;BME280;26644;50.248;19.032;2022-12-29T04:52:45;97950.56;;;3.23;63.18
40918;BME280;26644;50.248;19.032;2022-12-29T04:53:48;97948.91;;;3.22;63.28
40918;BME280;26644;50.248;19.032;2022-12-29T04:54:52;97949.50;;;3.24;63.05
40918;BME280;26644;50.248;19.032;2022-12-29T04:55:55;97944.06;;;3.24;62.99
40918;BME280;26644;50.248;19.032;2022-12-29T04:56:58;97947.84;;;3.23;62.95
40918;BME280;26644;50.248;19.032;2022-12-29T04:58:00;97948.09;;;3.22;63.27
40918;BME280;26644;50.248;19.032;2022-12-29T04:59:07;97943.47;;;3.22;63.35
40918;BME280;26644;50.248;19.032;2022-12-29T05:00:10;97945.38;;;3.22;62.84
40918;BME280;26644;50.248;19.032;2022-12-29T05:01:14;97949.50;;;3.24;63.01
40918;BME280;26644;50.248;19.032;2022-12-29T05:02:17;97953.84;;;3.25;63.21
40918;BME280;26644;50.248;19.032;2022-12-29T05:03:22;97955.66;;;3.20;63.03
40918;BME280;26644;50.248;19.032;2022-12-29T05:04:24;97955.75;;;3.25;62.64
40918;BME280;26644;50.248;19.032;2022-12-29T05:05:29;97952.53;;;3.28;62.76
40918;BME280;26644;50.248;19.032;2022-12-29T05:06:32;97949.59;;;3.30;62.78
40918;BME280;26644;50.248;19.032;2022-12-29T05:07:35;97944.47;;;3.33;62.59
40918;BME280;26644;50.248;19.032;2022-12-29T05:08:39;97944.22;;;3.35;62.97
40918;BME280;26644;50.248;19.032;2022-12-29T05:09:45;97939.41;;;3.37;62.79
40918;BME280;26644;50.248;19.032;2022-12-29T05:10:47;97945.41;;;3.39;62.78
40918;BME280;26644;50.248;19.032;2022-12-29T05:11:52;97938.69;;;3.41;62.39
40918;BME280;26644;50.248;19.032;2022-12-29T05:12:54;97932.56;;;3.34;62.47
40918;BME280;26644;50.248;19.032;2022-12-29T05:13:58;97936.78;;;3.42;62.53
40918;BME280;26644;50.248;19.032;2022-12-29T05:15:00;97929.19;;;3.44;62.14
40918;BME280;26644;50.248;19.032;2022-12-29T05:16:04;97937.13;;;3.46;62.34
40918;BME280;26644;50.248;19.032;2022-12-29T05:17:06;97939.84;;;3.46;62.10
40918;BME280;26644;50.248;19.032;2022-12-29T05:18:09;97932.00;;;3.49;62.10
40918;BME280;26644;50.248;19.032;2022-12-29T05:19:12;97934.50;;;3.51;62.35
40918;BME280;26644;50.248;19.032;2022-12-29T05:20:15;97936.13;;;3.52;62.15
40918;BME280;26644;50.248;19.032;2022-12-29T05:21:20;97938.59;;;3.53;62.23
40918;BME280;26644;50.248;19.032;2022-12-29T05:22:23;97942.38;;;3.52;62.01
40918;BME280;26644;50.248;19.032;2022-12-29T05:23:26;97941.06;;;3.55;62.40
40918;BME280;26644;50.248;19.032;2022-12-29T05:24:32;97940.81;;;3.56;62.24
40918;BME280;26644;50.248;19.032;2022-12-29T05:25:35;97942.94;;;3.54;62.21
40918;BME280;26644;50.248;19.032;2022-12-29T05:26:52;97940.81;;;3.56;62.36
40918;BME280;26644;50.248;19.032;2022-12-29T05:28:23;97946.59;;;3.60;61.96
40918;BME280;26644;50.248;19.032;2022-12-29T05:29:32;97941.72;;;3.62;62.04
40918;BME280;26644;50.248;19.032;2022-12-29T05:30:35;97948.81;;;3.63;62.24
40918;BME280;26644;50.248;19.032;2022-12-29T05:31:37;97953.16;;;3.64;62.54
40918;BME280;26644;50.248;19.032;2022-12-29T05:32:41;97952.34;;;3.64;62.36
40918;BME280;26644;50.248;19.032;2022-12-29T05:33:43;97948.56;;;3.65;61.79
40918;BME280;26644;50.248;19.032;2022-12-29T05:34:47;97924.94;;;3.48;62.04
40918;BME280;26644;50.248;19.032;2022-12-29T05:35:49;97945.25;;;3.63;62.46
40918;BME280;26644;50.248;19.032;2022-12-29T05:36:55;97946.25;;;3.56;62.44
40918;BME280;26644;50.248;19.032;2022-12-29T05:37:58;97945.75;;;3.59;62.13
40918;BME280;26644;50.248;19.032;2022-12-29T05:39:01;97941.06;;;3.55;62.34
40918;BME280;26644;50.248;19.032;2022-12-29T05:40:06;97936.47;;;3.55;62.46
40918;BME280;26644;50.248;19.032;2022-12-29T05:41:10;97939.75;;;3.57;62.49
40918;BME280;26644;50.248;19.032;2022-12-29T05:42:31;97933.25;;;3.58;62.09
40918;BME280;26644;50.248;19.032;2022-12-29T05:44:10;97921.72;;;3.51;62.30
40918;BME280;26644;50.248;19.032;2022-12-29T05:45:28;97919.34;;;3.55;62.43
40918;BME280;26644;50.248;19.032;2022-12-29T05:46:51;97922.38;;;3.58;62.37
40918;BME280;26644;50.248;19.032;2022-12-29T05:48:29;97917.78;;;3.59;62.33
40918;BME280;26644;50.248;19.032;2022-12-29T05:49:52;97918.84;;;3.58;62.66
40918;BME280;26644;50.248;19.032;2022-12-29T05:51:19;97927.72;;;3.53;62.38
40918;BME280;26644;50.248;19.032;2022-12-29T05:52:29;97919.84;;;3.52;62.89
40918;BME280;26644;50.248;19.032;2022-12-29T05:53:31;97926.09;;;3.52;62.67
40918;BME280;26644;50.248;19.032;2022-12-29T05:54:35;97921.22;;;3.54;62.85
40918;BME280;26644;50.248;19.032;2022-12-29T05:55:59;97921.72;;;3.51;62.88
40918;BME280;26644;50.248;19.032;2022-12-29T05:57:02;97920.34;;;3.49;62.85
40918;BME280;26644;50.248;19.032;2022-12-29T05:58:06;97928.81;;;3.52;62.88
40918;BME280;26644;50.248;19.032;2022-12-29T05:59:10;97928.56;;;3.54;62.87
40918;BME280;26644;50.248;19.032;2022-12-29T06:00:27;97928.06;;;3.57;62.82
40918;BME280;26644;50.248;19.032;2022-12-29T06:01:46;97930.53;;;3.58;62.65
40918;BME280;26644;50.248;19.032;2022-12-29T06:03:03;97937.09;;;3.63;62.55
40918;BME280;26644;50.248;19.032;2022-12-29T06:04:37;97933.34;;;3.64;62.61
40918;BME280;26644;50.248;19.032;2022-12-29T06:06:09;97924.88;;;3.60;62.74
40918;BME280;26644;50.248;19.032;2022-12-29T06:07:14;97919.75;;;3.64;62.63
40918;BME280;26644;50.248;19.032;2022-12-29T06:08:36;97911.94;;;3.67;62.37
40918;BME280;26644;50.248;19.032;2022-12-29T06:09:55;97923.16;;;3.71;62.48
40918;BME280;26644;50.248;19.032;2022-12-29T06:11:12;97916.16;;;3.75;62.77
40918;BME280;26644;50.248;19.032;2022-12-29T06:12:38;97910.47;;;3.76;62.56
40918;BME280;26644;50.248;19.032;2022-12-29T06:13:56;97904.78;;;3.78;62.44
40918;BME280;26644;50.248;19.032;2022-12-29T06:15:15;97907.25;;;3.80;62.21
40918;BME280;26644;50.248;19.032;2022-12-29T06:16:34;97901.34;;;3.83;62.36
40918;BME280;26644;50.248;19.032;2022-12-29T06:17:56;97909.22;;;3.84;62.29
40918;BME280;26644;50.248;19.032;2022-12-29T06:19:15;97903.28;;;3.87;62.22
40918;BME280;26644;50.248;19.032;2022-12-29T06:20:18;97901.41;;;3.88;62.10
40918;BME280;26644;50.248;19.032;2022-12-29T06:21:20;97905.44;;;3.85;62.46